New Westminster, Canada
Current Conditions -  °F | °C
As of 9:00 AM on Friday 24 Oct 2014 (Local Time) from CYVR Reporting Station
Broken Clouds Broken Clouds  
Wind Chill: 50°   Ceiling: 4000
Heat Index: 50°   Visibility: 15mi
Dew Point: 46°   Wind: 10mph
Humidity: 87%   Direction: 80°E
Pressure: 30.07"   Gusts: NA
Location:  49.21°N, 122.91°W
Report Text: CYVR 241600Z 08009KT 15SM FEW025 BKN040 10/08 A3007 RMK CU1SC6 SLP183
Loading
Personal Weather Stations






























Interactive Weather Map
Tropical Storm Tracking
New forecast layout! Learn more

10-Day Weather Forecast

Advertisements
Track Severe Weather on mobile